sensor_id;sensor_type;location;lat;lon;timestamp;P1;durP1;ratioP1;P2;durP2;ratioP2
38935;SDS011;66589;47.458;9.644;2023-02-17T00:03:39;4.68;;;1.58;;
38935;SDS011;66589;47.458;9.644;2023-02-17T00:06:09;5.70;;;1.52;;
38935;SDS011;66589;47.458;9.644;2023-02-17T00:08:35;7.05;;;1.40;;
38935;SDS011;66589;47.458;9.644;2023-02-17T00:11:01;4.53;;;1.08;;
38935;SDS011;66589;47.458;9.644;2023-02-17T00:13:27;11.60;;;1.48;;
38935;SDS011;66589;47.458;9.644;2023-02-17T00:15:53;4.25;;;1.27;;
38935;SDS011;66589;47.458;9.644;2023-02-17T00:18:19;4.00;;;1.10;;
38935;SDS011;66589;47.458;9.644;2023-02-17T00:20:44;5.40;;;1.60;;
38935;SDS011;66589;47.458;9.644;2023-02-17T00:23:10;4.93;;;1.42;;
38935;SDS011;66589;47.458;9.644;2023-02-17T00:25:36;5.72;;;1.30;;
38935;SDS011;66589;47.458;9.644;2023-02-17T00:28:02;6.47;;;1.90;;
38935;SDS011;66589;47.458;9.644;2023-02-17T00:30:28;6.22;;;1.52;;
38935;SDS011;66589;47.458;9.644;2023-02-17T00:32:54;6.78;;;2.17;;
38935;SDS011;66589;47.458;9.644;2023-02-17T00:35:19;9.23;;;1.98;;
38935;SDS011;66589;47.458;9.644;2023-02-17T00:37:45;8.02;;;1.92;;
38935;SDS011;66589;47.458;9.644;2023-02-17T00:40:11;5.70;;;1.63;;
38935;SDS011;66589;47.458;9.644;2023-02-17T00:42:37;8.35;;;2.13;;
38935;SDS011;66589;47.458;9.644;2023-02-17T00:45:03;9.18;;;2.90;;
38935;SDS011;66589;47.458;9.644;2023-02-17T00:47:29;10.13;;;3.10;;
38935;SDS011;66589;47.458;9.644;2023-02-17T00:49:55;7.57;;;3.35;;
38935;SDS011;66589;47.458;9.644;2023-02-17T00:52:21;8.68;;;3.80;;
38935;SDS011;66589;47.458;9.644;2023-02-17T00:54:46;13.82;;;4.43;;
38935;SDS011;66589;47.458;9.644;2023-02-17T00:57:12;9.38;;;4.18;;
38935;SDS011;66589;47.458;9.644;2023-02-17T00:59:39;9.95;;;4.10;;
38935;SDS011;66589;47.458;9.644;2023-02-17T01:02:05;9.23;;;3.95;;
38935;SDS011;66589;47.458;9.644;2023-02-17T01:04:30;9.68;;;3.80;;
38935;SDS011;66589;47.458;9.644;2023-02-17T01:06:56;8.73;;;3.63;;
38935;SDS011;66589;47.458;9.644;2023-02-17T01:09:22;7.80;;;3.13;;
38935;SDS011;66589;47.458;9.644;2023-02-17T01:11:48;6.68;;;2.25;;
38935;SDS011;66589;47.458;9.644;2023-02-17T01:14:13;7.18;;;2.35;;
38935;SDS011;66589;47.458;9.644;2023-02-17T01:16:40;9.13;;;2.30;;
38935;SDS011;66589;47.458;9.644;2023-02-17T01:19:10;7.22;;;2.28;;
38935;SDS011;66589;47.458;9.644;2023-02-17T01:21:38;5.28;;;1.98;;
38935;SDS011;66589;47.458;9.644;2023-02-17T01:24:04;6.57;;;2.17;;
38935;SDS011;66589;47.458;9.644;2023-02-17T01:26:32;5.95;;;1.83;;
38935;SDS011;66589;47.458;9.644;2023-02-17T01:28:58;6.93;;;1.98;;
38935;SDS011;66589;47.458;9.644;2023-02-17T01:31:24;5.15;;;1.83;;
38935;SDS011;66589;47.458;9.644;2023-02-17T01:33:57;6.25;;;1.63;;
38935;SDS011;66589;47.458;9.644;2023-02-17T01:36:24;8.38;;;1.95;;
38935;SDS011;66589;47.458;9.644;2023-02-17T01:38:50;7.47;;;2.40;;
38935;SDS011;66589;47.458;9.644;2023-02-17T01:41:16;6.53;;;1.50;;
38935;SDS011;66589;47.458;9.644;2023-02-17T01:44:03;7.55;;;1.58;;
38935;SDS011;66589;47.458;9.644;2023-02-17T01:46:32;5.22;;;1.58;;
38935;SDS011;66589;47.458;9.644;2023-02-17T01:49:02;5.72;;;1.60;;
38935;SDS011;66589;47.458;9.644;2023-02-17T01:51:36;4.40;;;1.35;;
38935;SDS011;66589;47.458;9.644;2023-02-17T01:54:05;5.55;;;1.38;;
38935;SDS011;66589;47.458;9.644;2023-02-17T01:56:37;5.65;;;1.50;;
38935;SDS011;66589;47.458;9.644;2023-02-17T01:59:09;7.47;;;1.42;;
38935;SDS011;66589;47.458;9.644;2023-02-17T02:01:39;5.35;;;1.27;;
38935;SDS011;66589;47.458;9.644;2023-02-17T02:04:05;6.18;;;1.70;;
38935;SDS011;66589;47.458;9.644;2023-02-17T02:06:32;6.28;;;1.65;;
38935;SDS011;66589;47.458;9.644;2023-02-17T02:09:04;5.00;;;1.25;;
38935;SDS011;66589;47.458;9.644;2023-02-17T02:11:33;5.32;;;1.10;;
38935;SDS011;66589;47.458;9.644;2023-02-17T02:14:00;5.55;;;1.10;;
38935;SDS011;66589;47.458;9.644;2023-02-17T02:16:31;3.83;;;1.13;;
38935;SDS011;66589;47.458;9.644;2023-02-17T02:19:00;5.30;;;1.30;;
38935;SDS011;66589;47.458;9.644;2023-02-17T02:22:07;5.13;;;0.95;;
38935;SDS011;66589;47.458;9.644;2023-02-17T02:36:02;3.83;;;0.80;;
38935;SDS011;66589;47.458;9.644;2023-02-17T02:41:14;3.95;;;1.23;;
38935;SDS011;66589;47.458;9.644;2023-02-17T02:43:47;4.57;;;0.82;;
38935;SDS011;66589;47.458;9.644;2023-02-17T02:46:13;4.10;;;1.00;;
38935;SDS011;66589;47.458;9.644;2023-02-17T02:48:40;3.95;;;0.82;;
38935;SDS011;66589;47.458;9.644;2023-02-17T03:07:14;3.33;;;0.75;;
38935;SDS011;66589;47.458;9.644;2023-02-17T03:09:46;5.00;;;1.00;;
38935;SDS011;66589;47.458;9.644;2023-02-17T03:12:17;4.97;;;0.70;;
38935;SDS011;66589;47.458;9.644;2023-02-17T03:14:43;2.60;;;0.60;;
38935;SDS011;66589;47.458;9.644;2023-02-17T03:17:10;3.38;;;0.73;;
38935;SDS011;66589;47.458;9.644;2023-02-17T03:19:36;5.15;;;0.57;;
38935;SDS011;66589;47.458;9.644;2023-02-17T03:24:39;5.00;;;0.50;;
38935;SDS011;66589;47.458;9.644;2023-02-17T03:27:05;3.72;;;0.55;;
38935;SDS011;66589;47.458;9.644;2023-02-17T03:29:31;2.83;;;0.60;;
38935;SDS011;66589;47.458;9.644;2023-02-17T03:31:56;2.78;;;0.65;;
38935;SDS011;66589;47.458;9.644;2023-02-17T03:34:22;3.08;;;0.40;;
38935;SDS011;66589;47.458;9.644;2023-02-17T03:36:48;3.80;;;0.50;;
38935;SDS011;66589;47.458;9.644;2023-02-17T03:39:13;4.10;;;0.50;;
38935;SDS011;66589;47.458;9.644;2023-02-17T03:41:39;4.25;;;0.52;;
38935;SDS011;66589;47.458;9.644;2023-02-17T03:44:05;4.05;;;0.50;;
38935;SDS011;66589;47.458;9.644;2023-02-17T03:46:30;3.97;;;0.30;;
38935;SDS011;66589;47.458;9.644;2023-02-17T03:48:56;4.78;;;0.45;;
38935;SDS011;66589;47.458;9.644;2023-02-17T03:51:22;2.72;;;0.50;;
38935;SDS011;66589;47.458;9.644;2023-02-17T03:53:49;3.10;;;0.40;;
38935;SDS011;66589;47.458;9.644;2023-02-17T03:56:15;2.80;;;0.50;;
38935;SDS011;66589;47.458;9.644;2023-02-17T03:58:42;2.20;;;0.70;;
38935;SDS011;66589;47.458;9.644;2023-02-17T04:01:08;3.72;;;0.73;;
38935;SDS011;66589;47.458;9.644;2023-02-17T04:03:35;4.03;;;0.60;;
38935;SDS011;66589;47.458;9.644;2023-02-17T04:06:01;2.97;;;0.70;;
38935;SDS011;66589;47.458;9.644;2023-02-17T04:08:27;3.90;;;0.70;;
38935;SDS011;66589;47.458;9.644;2023-02-17T04:10:54;4.30;;;0.70;;
38935;SDS011;66589;47.458;9.644;2023-02-17T04:13:21;2.88;;;0.63;;
38935;SDS011;66589;47.458;9.644;2023-02-17T04:15:48;2.72;;;0.57;;
38935;SDS011;66589;47.458;9.644;2023-02-17T04:18:14;3.65;;;0.50;;
38935;SDS011;66589;47.458;9.644;2023-02-17T04:20:40;3.17;;;0.77;;
38935;SDS011;66589;47.458;9.644;2023-02-17T04:23:06;4.40;;;0.60;;
38935;SDS011;66589;47.458;9.644;2023-02-17T04:25:32;3.38;;;0.70;;
38935;SDS011;66589;47.458;9.644;2023-02-17T04:27:59;3.28;;;0.40;;
38935;SDS011;66589;47.458;9.644;2023-02-17T04:30:25;3.60;;;0.65;;
38935;SDS011;66589;47.458;9.644;2023-02-17T04:32:50;3.50;;;0.80;;
38935;SDS011;66589;47.458;9.644;2023-02-17T04:35:16;7.15;;;0.70;;
38935;SDS011;66589;47.458;9.644;2023-02-17T04:37:42;3.17;;;0.50;;
38935;SDS011;66589;47.458;9.644;2023-02-17T04:40:08;2.92;;;0.60;;
38935;SDS011;66589;47.458;9.644;2023-02-17T04:42:37;3.15;;;0.43;;
38935;SDS011;66589;47.458;9.644;2023-02-17T04:45:04;6.72;;;0.80;;
38935;SDS011;66589;47.458;9.644;2023-02-17T04:47:31;3.22;;;0.60;;
38935;SDS011;66589;47.458;9.644;2023-02-17T04:49:57;3.40;;;0.60;;
38935;SDS011;66589;47.458;9.644;2023-02-17T04:52:22;4.55;;;0.77;;
38935;SDS011;66589;47.458;9.644;2023-02-17T04:54:48;1.98;;;0.40;;
38935;SDS011;66589;47.458;9.644;2023-02-17T04:57:14;3.22;;;0.52;;
38935;SDS011;66589;47.458;9.644;2023-02-17T04:59:39;2.53;;;0.52;;
38935;SDS011;66589;47.458;9.644;2023-02-17T05:02:05;2.50;;;0.40;;
38935;SDS011;66589;47.458;9.644;2023-02-17T05:04:31;3.35;;;0.40;;
38935;SDS011;66589;47.458;9.644;2023-02-17T05:06:57;2.65;;;0.52;;
38935;SDS011;66589;47.458;9.644;2023-02-17T05:09:22;4.15;;;0.50;;
38935;SDS011;66589;47.458;9.644;2023-02-17T05:11:48;3.53;;;0.30;;
38935;SDS011;66589;47.458;9.644;2023-02-17T05:14:14;1.90;;;0.50;;
38935;SDS011;66589;47.458;9.644;2023-02-17T05:16:39;3.03;;;0.40;;
38935;SDS011;66589;47.458;9.644;2023-02-17T05:19:05;5.93;;;0.40;;
38935;SDS011;66589;47.458;9.644;2023-02-17T05:21:31;2.95;;;0.45;;
38935;SDS011;66589;47.458;9.644;2023-02-17T05:23:56;5.82;;;0.40;;
38935;SDS011;66589;47.458;9.644;2023-02-17T05:26:23;1.88;;;0.30;;
38935;SDS011;66589;47.458;9.644;2023-02-17T05:28:49;2.00;;;0.40;;
38935;SDS011;66589;47.458;9.644;2023-02-17T05:31:15;6.40;;;0.40;;
38935;SDS011;66589;47.458;9.644;2023-02-17T05:33:41;3.22;;;0.52;;
38935;SDS011;66589;47.458;9.644;2023-02-17T05:36:07;3.65;;;0.40;;
38935;SDS011;66589;47.458;9.644;2023-02-17T05:38:35;1.77;;;0.38;;
38935;SDS011;66589;47.458;9.644;2023-02-17T05:41:01;2.95;;;0.63;;
38935;SDS011;66589;47.458;9.644;2023-02-17T05:43:27;5.10;;;0.40;;
38935;SDS011;66589;47.458;9.644;2023-02-17T05:45:53;2.90;;;0.60;;
38935;SDS011;66589;47.458;9.644;2023-02-17T05:48:19;3.92;;;0.40;;
38935;SDS011;66589;47.458;9.644;2023-02-17T05:50:45;3.13;;;0.50;;
38935;SDS011;66589;47.458;9.644;2023-02-17T05:53:10;6.13;;;0.50;;
38935;SDS011;66589;47.458;9.644;2023-02-17T05:55:36;2.05;;;0.43;;
38935;SDS011;66589;47.458;9.644;2023-02-17T05:58:02;2.97;;;0.60;;
38935;SDS011;66589;47.458;9.644;2023-02-17T06:00:28;2.28;;;0.43;;
38935;SDS011;66589;47.458;9.644;2023-02-17T06:02:54;3.08;;;0.60;;
38935;SDS011;66589;47.458;9.644;2023-02-17T06:05:19;5.53;;;0.50;;
38935;SDS011;66589;47.458;9.644;2023-02-17T06:07:45;3.28;;;0.50;;
38935;SDS011;66589;47.458;9.644;2023-02-17T06:10:11;3.72;;;0.65;;
38935;SDS011;66589;47.458;9.644;2023-02-17T06:12:37;3.38;;;0.57;;
38935;SDS011;66589;47.458;9.644;2023-02-17T06:15:03;3.30;;;0.60;;
38935;SDS011;66589;47.458;9.644;2023-02-17T06:17:29;7.47;;;0.50;;
38935;SDS011;66589;47.458;9.644;2023-02-17T06:19:54;2.97;;;0.50;;
38935;SDS011;66589;47.458;9.644;2023-02-17T06:22:20;2.92;;;0.70;;
38935;SDS011;66589;47.458;9.644;2023-02-17T06:24:46;4.03;;;0.60;;
38935;SDS011;66589;47.458;9.644;2023-02-17T06:27:11;3.95;;;0.60;;
38935;SDS011;66589;47.458;9.644;2023-02-17T06:29:37;2.35;;;0.68;;
38935;SDS011;66589;47.458;9.644;2023-02-17T06:32:03;5.13;;;0.60;;
38935;SDS011;66589;47.458;9.644;2023-02-17T06:34:28;3.42;;;0.65;;
38935;SDS011;66589;47.458;9.644;2023-02-17T06:36:54;4.22;;;0.80;;
38935;SDS011;66589;47.458;9.644;2023-02-17T06:39:20;8.45;;;0.75;;
38935;SDS011;66589;47.458;9.644;2023-02-17T06:41:46;4.93;;;0.80;;
38935;SDS011;66589;47.458;9.644;2023-02-17T06:44:12;6.15;;;0.60;;
38935;SDS011;66589;47.458;9.644;2023-02-17T06:46:37;3.45;;;0.52;;
38935;SDS011;66589;47.458;9.644;2023-02-17T06:49:03;3.60;;;0.60;;
38935;SDS011;66589;47.458;9.644;2023-02-17T06:51:29;3.22;;;0.88;;
38935;SDS011;66589;47.458;9.644;2023-02-17T06:53:55;2.70;;;0.57;;
38935;SDS011;66589;47.458;9.644;2023-02-17T06:56:21;6.55;;;0.55;;
38935;SDS011;66589;47.458;9.644;2023-02-17T06:58:47;4.05;;;0.77;;
38935;SDS011;66589;47.458;9.644;2023-02-17T07:01:17;3.63;;;0.82;;
38935;SDS011;66589;47.458;9.644;2023-02-17T07:03:45;3.80;;;0.57;;
38935;SDS011;66589;47.458;9.644;2023-02-17T07:06:11;3.75;;;0.68;;
38935;SDS011;66589;47.458;9.644;2023-02-17T07:08:37;2.58;;;0.50;;
38935;SDS011;66589;47.458;9.644;2023-02-17T07:11:04;3.15;;;0.70;;
38935;SDS011;66589;47.458;9.644;2023-02-17T07:13:31;3.83;;;0.63;;
38935;SDS011;66589;47.458;9.644;2023-02-17T07:15:57;4.90;;;0.70;;
38935;SDS011;66589;47.458;9.644;2023-02-17T07:18:22;6.15;;;0.70;;
38935;SDS011;66589;47.458;9.644;2023-02-17T07:20:48;4.25;;;0.60;;
38935;SDS011;66589;47.458;9.644;2023-02-17T07:23:14;4.95;;;0.73;;
38935;SDS011;66589;47.458;9.644;2023-02-17T07:25:39;3.10;;;0.40;;
38935;SDS011;66589;47.458;9.644;2023-02-17T07:28:05;2.92;;;0.70;;
38935;SDS011;66589;47.458;9.644;2023-02-17T07:30:31;4.25;;;0.50;;
38935;SDS011;66589;47.458;9.644;2023-02-17T07:32:56;4.03;;;0.60;;
38935;SDS011;66589;47.458;9.644;2023-02-17T07:35:22;2.47;;;0.60;;
38935;SDS011;66589;47.458;9.644;2023-02-17T07:37:48;5.32;;;0.60;;
38935;SDS011;66589;47.458;9.644;2023-02-17T07:40:15;3.63;;;0.70;;
38935;SDS011;66589;47.458;9.644;2023-02-17T07:42:41;3.78;;;0.65;;
38935;SDS011;66589;47.458;9.644;2023-02-17T07:45:07;3.70;;;0.45;;
38935;SDS011;66589;47.458;9.644;2023-02-17T07:47:32;6.43;;;0.50;;
38935;SDS011;66589;47.458;9.644;2023-02-17T07:49:58;3.58;;;0.52;;
38935;SDS011;66589;47.458;9.644;2023-02-17T07:52:24;4.43;;;0.40;;
38935;SDS011;66589;47.458;9.644;2023-02-17T07:54:49;4.15;;;0.50;;
38935;SDS011;66589;47.458;9.644;2023-02-17T07:57:15;5.53;;;0.60;;
38935;SDS011;66589;47.458;9.644;2023-02-17T07:59:41;2.83;;;0.60;;
38935;SDS011;66589;47.458;9.644;2023-02-17T08:02:09;2.00;;;0.45;;
38935;SDS011;66589;47.458;9.644;2023-02-17T08:04:35;3.85;;;0.47;;
38935;SDS011;66589;47.458;9.644;2023-02-17T08:07:01;3.88;;;0.65;;
38935;SDS011;66589;47.458;9.644;2023-02-17T08:09:27;5.63;;;0.65;;
38935;SDS011;66589;47.458;9.644;2023-02-17T08:12:15;6.13;;;0.70;;
38935;SDS011;66589;47.458;9.644;2023-02-17T08:15:00;3.85;;;0.50;;
38935;SDS011;66589;47.458;9.644;2023-02-17T08:17:26;6.00;;;0.82;;
38935;SDS011;66589;47.458;9.644;2023-02-17T08:19:53;10.20;;;0.77;;
38935;SDS011;66589;47.458;9.644;2023-02-17T08:22:19;7.72;;;0.88;;
38935;SDS011;66589;47.458;9.644;2023-02-17T08:24:45;6.80;;;0.70;;
38935;SDS011;66589;47.458;9.644;2023-02-17T08:27:11;4.13;;;0.60;;
38935;SDS011;66589;47.458;9.644;2023-02-17T08:29:39;7.53;;;0.70;;
38935;SDS011;66589;47.458;9.644;2023-02-17T08:32:05;2.63;;;0.60;;
38935;SDS011;66589;47.458;9.644;2023-02-17T08:34:31;7.00;;;0.55;;
38935;SDS011;66589;47.458;9.644;2023-02-17T08:37:01;10.20;;;0.88;;
38935;SDS011;66589;47.458;9.644;2023-02-17T08:39:28;7.75;;;0.90;;
38935;SDS011;66589;47.458;9.644;2023-02-17T08:41:54;14.93;;;2.35;;
38935;SDS011;66589;47.458;9.644;2023-02-17T08:44:20;2.92;;;0.60;;
38935;SDS011;66589;47.458;9.644;2023-02-17T08:46:47;2.80;;;0.40;;
38935;SDS011;66589;47.458;9.644;2023-02-17T08:49:14;2.38;;;0.50;;
38935;SDS011;66589;47.458;9.644;2023-02-17T08:51:41;6.60;;;0.60;;
38935;SDS011;66589;47.458;9.644;2023-02-17T08:54:07;3.25;;;0.55;;
38935;SDS011;66589;47.458;9.644;2023-02-17T08:56:35;4.55;;;0.50;;
38935;SDS011;66589;47.458;9.644;2023-02-17T08:59:02;4.72;;;0.52;;
38935;SDS011;66589;47.458;9.644;2023-02-17T09:01:29;2.13;;;0.60;;
38935;SDS011;66589;47.458;9.644;2023-02-17T09:03:55;4.35;;;0.73;;
38935;SDS011;66589;47.458;9.644;2023-02-17T09:06:22;2.97;;;0.50;;
38935;SDS011;66589;47.458;9.644;2023-02-17T09:08:48;5.95;;;0.50;;
38935;SDS011;66589;47.458;9.644;2023-02-17T09:11:15;6.03;;;0.60;;
38935;SDS011;66589;47.458;9.644;2023-02-17T09:13:43;4.55;;;0.70;;
38935;SDS011;66589;47.458;9.644;2023-02-17T09:16:09;6.63;;;0.50;;
38935;SDS011;66589;47.458;9.644;2023-02-17T09:18:35;5.78;;;0.60;;
38935;SDS011;66589;47.458;9.644;2023-02-17T09:21:07;5.57;;;0.60;;
38935;SDS011;66589;47.458;9.644;2023-02-17T09:23:35;4.40;;;0.82;;
38935;SDS011;66589;47.458;9.644;2023-02-17T09:26:02;3.15;;;0.40;;
38935;SDS011;66589;47.458;9.644;2023-02-17T09:28:30;7.93;;;0.55;;
38935;SDS011;66589;47.458;9.644;2023-02-17T09:30:56;2.90;;;0.50;;
38935;SDS011;66589;47.458;9.644;2023-02-17T09:33:21;8.13;;;0.70;;
38935;SDS011;66589;47.458;9.644;2023-02-17T09:35:47;2.80;;;0.40;;
38935;SDS011;66589;47.458;9.644;2023-02-17T09:38:14;4.40;;;0.68;;
38935;SDS011;66589;47.458;9.644;2023-02-17T09:40:44;3.20;;;0.52;;
38935;SDS011;66589;47.458;9.644;2023-02-17T09:43:13;2.25;;;0.32;;
38935;SDS011;66589;47.458;9.644;2023-02-17T09:45:51;3.95;;;0.30;;
38935;SDS011;66589;47.458;9.644;2023-02-17T09:48:24;2.97;;;0.57;;
38935;SDS011;66589;47.458;9.644;2023-02-17T09:50:54;2.55;;;0.50;;
38935;SDS011;66589;47.458;9.644;2023-02-17T09:53:26;4.30;;;0.35;;
38935;SDS011;66589;47.458;9.644;2023-02-17T09:56:21;3.28;;;0.32;;
38935;SDS011;66589;47.458;9.644;2023-02-17T09:58:54;2.47;;;0.20;;
38935;SDS011;66589;47.458;9.644;2023-02-17T10:01:28;2.15;;;0.30;;
38935;SDS011;66589;47.458;9.644;2023-02-17T10:06:48;2.78;;;0.30;;
38935;SDS011;66589;47.458;9.644;2023-02-17T10:09:56;1.83;;;0.50;;
38935;SDS011;66589;47.458;9.644;2023-02-17T10:12:25;3.10;;;0.35;;
38935;SDS011;66589;47.458;9.644;2023-02-17T10:15:15;3.40;;;0.60;;
38935;SDS011;66589;47.458;9.644;2023-02-17T10:20:16;2.70;;;0.30;;
38935;SDS011;66589;47.458;9.644;2023-02-17T10:22:48;2.50;;;0.30;;
38935;SDS011;66589;47.458;9.644;2023-02-17T10:25:21;2.90;;;0.20;;
38935;SDS011;66589;47.458;9.644;2023-02-17T10:28:08;3.30;;;0.30;;
38935;SDS011;66589;47.458;9.644;2023-02-17T10:30:51;3.97;;;0.20;;
38935;SDS011;66589;47.458;9.644;2023-02-17T10:33:30;3.42;;;0.40;;
38935;SDS011;66589;47.458;9.644;2023-02-17T10:36:09;2.75;;;0.22;;
38935;SDS011;66589;47.458;9.644;2023-02-17T10:39:00;2.55;;;0.32;;
38935;SDS011;66589;47.458;9.644;2023-02-17T10:41:35;4.65;;;0.50;;
38935;SDS011;66589;47.458;9.644;2023-02-17T10:44:05;7.32;;;0.32;;
38935;SDS011;66589;47.458;9.644;2023-02-17T10:46:37;4.07;;;0.30;;
38935;SDS011;66589;47.458;9.644;2023-02-17T10:49:08;4.38;;;0.30;;
38935;SDS011;66589;47.458;9.644;2023-02-17T10:54:37;2.85;;;0.70;;
38935;SDS011;66589;47.458;9.644;2023-02-17T10:57:18;5.63;;;0.50;;
38935;SDS011;66589;47.458;9.644;2023-02-17T10:59:46;5.15;;;0.38;;
38935;SDS011;66589;47.458;9.644;2023-02-17T11:02:14;8.18;;;0.63;;
38935;SDS011;66589;47.458;9.644;2023-02-17T11:05:07;3.97;;;0.20;;
38935;SDS011;66589;47.458;9.644;2023-02-17T11:08:02;3.92;;;0.60;;
38935;SDS011;66589;47.458;9.644;2023-02-17T11:10:34;4.90;;;0.47;;
38935;SDS011;66589;47.458;9.644;2023-02-17T11:13:14;3.40;;;0.40;;
38935;SDS011;66589;47.458;9.644;2023-02-17T11:15:53;4.72;;;0.68;;
38935;SDS011;66589;47.458;9.644;2023-02-17T11:18:20;6.10;;;0.50;;
38935;SDS011;66589;47.458;9.644;2023-02-17T11:20:58;3.67;;;0.80;;
38935;SDS011;66589;47.458;9.644;2023-02-17T11:23:29;8.00;;;0.90;;
38935;SDS011;66589;47.458;9.644;2023-02-17T11:26:02;6.82;;;0.73;;
38935;SDS011;66589;47.458;9.644;2023-02-17T11:28:34;4.80;;;0.60;;
38935;SDS011;66589;47.458;9.644;2023-02-17T11:30:59;3.47;;;0.60;;
38935;SDS011;66589;47.458;9.644;2023-02-17T11:33:30;6.30;;;0.68;;
38935;SDS011;66589;47.458;9.644;2023-02-17T11:36:01;4.68;;;1.00;;
38935;SDS011;66589;47.458;9.644;2023-02-17T11:38:32;3.78;;;0.50;;
38935;SDS011;66589;47.458;9.644;2023-02-17T11:41:06;6.22;;;0.70;;
38935;SDS011;66589;47.458;9.644;2023-02-17T11:43:33;6.65;;;0.90;;
38935;SDS011;66589;47.458;9.644;2023-02-17T12:02:13;5.47;;;1.10;;
38935;SDS011;66589;47.458;9.644;2023-02-17T12:23:48;10.80;;;1.50;;
38935;SDS011;66589;47.458;9.644;2023-02-17T12:26:25;8.30;;;2.00;;
38935;SDS011;66589;47.458;9.644;2023-02-17T12:29:05;6.35;;;1.55;;
38935;SDS011;66589;47.458;9.644;2023-02-17T12:37:30;9.75;;;1.42;;
38935;SDS011;66589;47.458;9.644;2023-02-17T12:40:02;8.35;;;1.40;;
38935;SDS011;66589;47.458;9.644;2023-02-17T12:42:42;10.73;;;1.75;;
38935;SDS011;66589;47.458;9.644;2023-02-17T12:45:20;12.45;;;1.80;;
38935;SDS011;66589;47.458;9.644;2023-02-17T12:47:56;11.23;;;1.80;;
38935;SDS011;66589;47.458;9.644;2023-02-17T12:50:34;11.23;;;2.05;;
38935;SDS011;66589;47.458;9.644;2023-02-17T12:53:18;11.20;;;2.05;;
38935;SDS011;66589;47.458;9.644;2023-02-17T12:56:07;10.85;;;2.28;;
38935;SDS011;66589;47.458;9.644;2023-02-17T12:58:52;16.13;;;2.85;;
38935;SDS011;66589;47.458;9.644;2023-02-17T13:01:20;12.57;;;3.22;;
38935;SDS011;66589;47.458;9.644;2023-02-17T13:03:50;16.00;;;3.20;;
38935;SDS011;66589;47.458;9.644;2023-02-17T13:11:52;13.65;;;2.70;;
38935;SDS011;66589;47.458;9.644;2023-02-17T13:14:36;11.57;;;2.70;;
38935;SDS011;66589;47.458;9.644;2023-02-17T13:17:03;11.00;;;1.92;;
38935;SDS011;66589;47.458;9.644;2023-02-17T13:19:30;9.77;;;1.75;;
38935;SDS011;66589;47.458;9.644;2023-02-17T13:21:58;10.65;;;2.03;;
38935;SDS011;66589;47.458;9.644;2023-02-17T13:24:33;9.68;;;2.38;;
38935;SDS011;66589;47.458;9.644;2023-02-17T13:30:01;10.50;;;1.98;;
38935;SDS011;66589;47.458;9.644;2023-02-17T13:33:54;10.45;;;1.92;;
38935;SDS011;66589;47.458;9.644;2023-02-17T13:35:48;11.35;;;1.63;;
38935;SDS011;66589;47.458;9.644;2023-02-17T13:38:24;9.32;;;2.17;;
38935;SDS011;66589;47.458;9.644;2023-02-17T13:40:56;8.02;;;1.92;;
38935;SDS011;66589;47.458;9.644;2023-02-17T13:43:29;11.85;;;2.28;;
38935;SDS011;66589;47.458;9.644;2023-02-17T13:45:59;9.95;;;2.10;;
38935;SDS011;66589;47.458;9.644;2023-02-17T13:48:30;9.13;;;1.73;;
38935;SDS011;66589;47.458;9.644;2023-02-17T13:50:59;7.82;;;2.10;;
38935;SDS011;66589;47.458;9.644;2023-02-17T13:53:34;11.85;;;2.55;;
38935;SDS011;66589;47.458;9.644;2023-02-17T13:56:09;10.65;;;2.83;;
38935;SDS011;66589;47.458;9.644;2023-02-17T13:58:47;8.25;;;2.60;;
38935;SDS011;66589;47.458;9.644;2023-02-17T14:01:23;10.68;;;1.67;;
38935;SDS011;66589;47.458;9.644;2023-02-17T14:03:52;6.95;;;1.98;;
38935;SDS011;66589;47.458;9.644;2023-02-17T14:06:24;8.80;;;1.90;;
38935;SDS011;66589;47.458;9.644;2023-02-17T14:08:52;8.02;;;1.50;;
38935;SDS011;66589;47.458;9.644;2023-02-17T14:11:21;9.65;;;2.38;;
38935;SDS011;66589;47.458;9.644;2023-02-17T14:13:50;6.20;;;1.73;;
38935;SDS011;66589;47.458;9.644;2023-02-17T14:21:55;10.63;;;2.10;;
38935;SDS011;66589;47.458;9.644;2023-02-17T14:24:56;11.52;;;2.70;;
38935;SDS011;66589;47.458;9.644;2023-02-17T14:27:22;16.55;;;2.30;;
38935;SDS011;66589;47.458;9.644;2023-02-17T14:29:48;24.80;;;3.97;;
38935;SDS011;66589;47.458;9.644;2023-02-17T14:34:54;12.93;;;2.65;;
38935;SDS011;66589;47.458;9.644;2023-02-17T14:37:30;14.10;;;3.40;;
38935;SDS011;66589;47.458;9.644;2023-02-17T14:40:00;13.32;;;3.00;;
38935;SDS011;66589;47.458;9.644;2023-02-17T14:42:29;15.55;;;2.95;;
38935;SDS011;66589;47.458;9.644;2023-02-17T14:44:55;11.30;;;2.58;;
38935;SDS011;66589;47.458;9.644;2023-02-17T14:47:20;16.25;;;2.45;;
38935;SDS011;66589;47.458;9.644;2023-02-17T14:49:46;10.63;;;2.72;;
38935;SDS011;66589;47.458;9.644;2023-02-17T14:52:17;12.60;;;3.75;;
38935;SDS011;66589;47.458;9.644;2023-02-17T14:54:45;17.45;;;3.22;;
38935;SDS011;66589;47.458;9.644;2023-02-17T14:57:11;11.85;;;2.55;;
38935;SDS011;66589;47.458;9.644;2023-02-17T14:59:38;14.18;;;2.53;;
38935;SDS011;66589;47.458;9.644;2023-02-17T15:02:10;10.55;;;1.60;;
38935;SDS011;66589;47.458;9.644;2023-02-17T15:04:39;7.05;;;1.60;;
38935;SDS011;66589;47.458;9.644;2023-02-17T15:07:07;7.50;;;1.85;;
38935;SDS011;66589;47.458;9.644;2023-02-17T15:09:36;9.00;;;2.30;;
38935;SDS011;66589;47.458;9.644;2023-02-17T15:12:04;8.68;;;2.10;;
38935;SDS011;66589;47.458;9.644;2023-02-17T15:14:37;7.28;;;1.98;;
38935;SDS011;66589;47.458;9.644;2023-02-17T15:17:03;5.60;;;1.60;;
38935;SDS011;66589;47.458;9.644;2023-02-17T15:19:28;8.88;;;1.83;;
38935;SDS011;66589;47.458;9.644;2023-02-17T15:21:54;12.60;;;4.38;;
38935;SDS011;66589;47.458;9.644;2023-02-17T15:24:22;12.82;;;5.75;;
38935;SDS011;66589;47.458;9.644;2023-02-17T15:26:49;9.40;;;2.88;;
38935;SDS011;66589;47.458;9.644;2023-02-17T15:29:16;9.00;;;2.70;;
38935;SDS011;66589;47.458;9.644;2023-02-17T15:31:44;9.75;;;2.38;;
38935;SDS011;66589;47.458;9.644;2023-02-17T15:34:14;10.95;;;2.20;;
38935;SDS011;66589;47.458;9.644;2023-02-17T15:36:41;5.38;;;2.03;;
38935;SDS011;66589;47.458;9.644;2023-02-17T15:39:14;9.55;;;2.38;;
38935;SDS011;66589;47.458;9.644;2023-02-17T15:41:42;14.15;;;2.58;;
38935;SDS011;66589;47.458;9.644;2023-02-17T15:44:13;11.10;;;2.08;;
38935;SDS011;66589;47.458;9.644;2023-02-17T15:46:41;6.75;;;2.30;;
38935;SDS011;66589;47.458;9.644;2023-02-17T15:49:10;7.40;;;2.83;;
38935;SDS011;66589;47.458;9.644;2023-02-17T15:51:36;6.70;;;1.98;;
38935;SDS011;66589;47.458;9.644;2023-02-17T15:54:02;12.38;;;2.10;;
38935;SDS011;66589;47.458;9.644;2023-02-17T15:57:12;8.40;;;2.30;;
38935;SDS011;66589;47.458;9.644;2023-02-17T15:59:18;14.65;;;2.15;;
38935;SDS011;66589;47.458;9.644;2023-02-17T16:01:47;7.32;;;2.08;;
38935;SDS011;66589;47.458;9.644;2023-02-17T16:04:14;8.13;;;2.00;;
38935;SDS011;66589;47.458;9.644;2023-02-17T16:06:40;6.43;;;1.90;;
38935;SDS011;66589;47.458;9.644;2023-02-17T16:09:06;9.30;;;2.20;;
38935;SDS011;66589;47.458;9.644;2023-02-17T16:11:33;9.52;;;1.70;;
38935;SDS011;66589;47.458;9.644;2023-02-17T16:13:59;13.43;;;2.08;;
38935;SDS011;66589;47.458;9.644;2023-02-17T16:16:27;8.85;;;2.30;;
38935;SDS011;66589;47.458;9.644;2023-02-17T16:18:57;8.82;;;1.80;;
38935;SDS011;66589;47.458;9.644;2023-02-17T16:21:23;10.55;;;2.20;;
38935;SDS011;66589;47.458;9.644;2023-02-17T16:23:49;11.55;;;2.22;;
38935;SDS011;66589;47.458;9.644;2023-02-17T16:26:30;10.30;;;2.08;;
38935;SDS011;66589;47.458;9.644;2023-02-17T16:28:59;9.60;;;2.50;;
38935;SDS011;66589;47.458;9.644;2023-02-17T16:31:26;12.57;;;2.10;;
38935;SDS011;66589;47.458;9.644;2023-02-17T16:33:55;7.85;;;1.98;;
38935;SDS011;66589;47.458;9.644;2023-02-17T16:36:24;9.25;;;2.20;;
38935;SDS011;66589;47.458;9.644;2023-02-17T16:38:50;11.80;;;2.17;;